Time;durP1;ratioP1;P1;durP2;ratioP2;P2;SDS_P1;SDS_P2;PMS_P1;PMS_P2;Temp;Humidity;BMP_temperature;BMP_pressure;BME280_temperature;BME280_humidity;BME280_pressure;Samples;Min_cycle;Max_cycle;Signal;HPM_P1;HPM_P2
2021/12/19 00:00:22;;;;;;;41.37;17.93;;;;;;;;;;5115762;28;20449;-72
2021/12/19 00:03:05;;;;;;;33.97;16.50;;;;;;;;;;5115849;28;20525;-72
2021/12/19 00:08:45;;;;;;;37.40;17.10;;;;;;;;;;5115662;28;20405;-73
2021/12/19 00:11:14;;;;;;;39.17;17.27;;;;;;;;;;5115306;28;20457;-73
2021/12/19 00:13:41;;;;;;;39.73;15.60;;;;;;;;;;5115345;28;20836;-73
2021/12/19 00:16:08;;;;;;;40.20;15.93;;;;;;;;;;5115176;28;20466;-73
2021/12/19 00:18:35;;;;;;;38.17;18.53;;;;;;;;;;5115519;28;20930;-73
2021/12/19 00:21:03;;;;;;;37.23;17.27;;;;;;;;;;5115339;28;20446;-73
2021/12/19 00:23:31;;;;;;;46.50;18.07;;;;;;;;;;5115233;28;20472;-73
2021/12/19 00:25:59;;;;;;;53.00;18.73;;;;;;;;;;5115292;28;20469;-73
2021/12/19 00:28:27;;;;;;;46.67;17.30;;;;;;;;;;5115127;28;20453;-73
2021/12/19 00:30:55;;;;;;;51.07;19.33;;;;;;;;;;5115310;28;20458;-73
2021/12/19 00:33:23;;;;;;;40.37;16.40;;;;;;;;;;5115098;28;20990;-73
2021/12/19 00:35:50;;;;;;;45.40;18.20;;;;;;;;;;5114869;28;20469;-72
2021/12/19 00:38:17;;;;;;;44.27;17.33;;;;;;;;;;5113779;28;20450;-72
2021/12/19 00:40:44;;;;;;;47.20;20.00;;;;;;;;;;5115026;28;20499;-73
2021/12/19 00:43:23;;;;;;;50.37;20.53;;;;;;;;;;5115034;28;20818;-72
2021/12/19 00:45:53;;;;;;;43.27;18.73;;;;;;;;;;5114990;28;20831;-72
2021/12/19 00:48:20;;;;;;;51.47;18.73;;;;;;;;;;5114925;28;20435;-72
2021/12/19 00:50:48;;;;;;;47.23;19.93;;;;;;;;;;5114609;28;20449;-72
2021/12/19 00:53:16;;;;;;;56.63;19.93;;;;;;;;;;5115003;28;20442;-72
2021/12/19 00:55:43;;;;;;;51.87;19.60;;;;;;;;;;5114645;28;20518;-72
2021/12/19 00:58:10;;;;;;;46.23;19.43;;;;;;;;;;5114660;28;20476;-72
2021/12/19 01:00:37;;;;;;;46.23;20.00;;;;;;;;;;5114593;28;20977;-72
2021/12/19 01:03:06;;;;;;;55.03;22.43;;;;;;;;;;5114275;28;20527;-73
2021/12/19 01:05:36;;;;;;;55.97;19.50;;;;;;;;;;5113943;28;20501;-73
2021/12/19 01:08:04;;;;;;;48.70;21.27;;;;;;;;;;5114460;28;20956;-73
2021/12/19 01:10:31;;;;;;;45.37;17.57;;;;;;;;;;5114470;28;20960;-73
2021/12/19 01:12:58;;;;;;;41.23;17.47;;;;;;;;;;5114493;28;20477;-73
2021/12/19 01:15:26;;;;;;;48.07;21.60;;;;;;;;;;5113977;28;20857;-72
2021/12/19 01:17:53;;;;;;;47.13;21.37;;;;;;;;;;5114266;28;20461;-72
2021/12/19 01:20:22;;;;;;;38.90;19.50;;;;;;;;;;5114310;28;20455;-72
2021/12/19 01:22:50;;;;;;;37.30;17.87;;;;;;;;;;5113895;28;20445;-72
2021/12/19 01:25:17;;;;;;;39.70;17.43;;;;;;;;;;5114039;28;20466;-72
2021/12/19 01:27:44;;;;;;;38.30;18.50;;;;;;;;;;5114210;28;20997;-72
2021/12/19 01:30:12;;;;;;;39.73;18.50;;;;;;;;;;5114119;28;20469;-72
2021/12/19 01:32:39;;;;;;;44.57;21.73;;;;;;;;;;5113815;28;20458;-72
2021/12/19 01:35:07;;;;;;;45.23;20.67;;;;;;;;;;5114073;28;20500;-72
2021/12/19 01:37:36;;;;;;;44.70;19.23;;;;;;;;;;5114104;28;21025;-72
2021/12/19 01:40:04;;;;;;;34.83;16.03;;;;;;;;;;5113825;28;20510;-72
2021/12/19 01:42:32;;;;;;;37.17;17.30;;;;;;;;;;5113713;28;20446;-72
2021/12/19 01:44:59;;;;;;;36.00;16.27;;;;;;;;;;5113817;28;20468;-72
2021/12/19 01:47:26;;;;;;;44.23;17.33;;;;;;;;;;5113968;28;20933;-72
2021/12/19 01:49:55;;;;;;;42.90;16.73;;;;;;;;;;5113570;28;20452;-72
2021/12/19 01:52:22;;;;;;;45.07;18.93;;;;;;;;;;5113869;28;20453;-72
2021/12/19 01:54:51;;;;;;;42.70;17.37;;;;;;;;;;5113703;28;20485;-72
2021/12/19 01:57:18;;;;;;;46.80;19.67;;;;;;;;;;5113879;28;20822;-72
2021/12/19 01:59:46;;;;;;;44.17;18.80;;;;;;;;;;5113537;28;20533;-72
2021/12/19 02:02:13;;;;;;;46.83;20.57;;;;;;;;;;5113395;28;20460;-72
2021/12/19 02:04:42;;;;;;;39.07;17.20;;;;;;;;;;5113635;28;20972;-72
2021/12/19 02:07:11;;;;;;;41.20;17.23;;;;;;;;;;5113801;28;20457;-72
2021/12/19 02:09:39;;;;;;;46.70;18.17;;;;;;;;;;5113481;28;20803;-72
2021/12/19 02:12:08;;;;;;;43.83;18.57;;;;;;;;;;5113272;28;20453;-72
2021/12/19 02:14:35;;;;;;;40.37;16.07;;;;;;;;;;5113454;28;20572;-72
2021/12/19 02:17:02;;;;;;;33.40;14.37;;;;;;;;;;5113714;28;20436;-72
2021/12/19 02:19:30;;;;;;;36.07;15.37;;;;;;;;;;5113619;28;20445;-72
2021/12/19 02:21:59;;;;;;;35.00;14.23;;;;;;;;;;5113352;28;20429;-72
2021/12/19 02:24:26;;;;;;;35.60;15.80;;;;;;;;;;5113228;28;20552;-72
2021/12/19 02:26:53;;;;;;;31.33;15.47;;;;;;;;;;5113254;28;20454;-72
2021/12/19 02:29:21;;;;;;;28.53;13.83;;;;;;;;;;5113142;28;20449;-72
2021/12/19 02:31:48;;;;;;;37.33;16.60;;;;;;;;;;5113058;28;20450;-72
2021/12/19 02:34:19;;;;;;;33.93;13.50;;;;;;;;;;5113018;28;20489;-72
2021/12/19 02:36:55;;;;;;;43.90;14.23;;;;;;;;;;5113497;28;20448;-72
2021/12/19 02:39:46;;;;;;;31.40;12.70;;;;;;;;;;5113510;28;20487;-72
2021/12/19 02:50:28;;;;;;;28.67;11.67;;;;;;;;;;5113368;28;20413;-72
2021/12/19 02:52:55;;;;;;;21.30;10.80;;;;;;;;;;5113066;28;20464;-72
2021/12/19 02:55:24;;;;;;;27.10;11.57;;;;;;;;;;5112789;28;20482;-72
2021/12/19 02:57:51;;;;;;;27.03;11.77;;;;;;;;;;5113222;28;20506;-72
2021/12/19 03:00:20;;;;;;;34.27;15.10;;;;;;;;;;5113272;28;20804;-72
2021/12/19 03:02:48;;;;;;;34.60;11.93;;;;;;;;;;5116442;28;20453;-72
2021/12/19 03:05:15;;;;;;;23.20;12.07;;;;;;;;;;5116720;28;20465;-72
2021/12/19 03:07:43;;;;;;;36.07;14.47;;;;;;;;;;5116933;28;20945;-72
2021/12/19 03:10:41;;;;;;;32.10;14.17;;;;;;;;;;5116778;28;20896;-72
2021/12/19 03:13:19;;;;;;;38.37;14.63;;;;;;;;;;5116345;28;20472;-72
2021/12/19 03:18:37;;;;;;;29.90;12.87;;;;;;;;;;5115378;28;20434;-72
2021/12/19 03:21:04;;;;;;;24.77;11.33;;;;;;;;;;5116623;28;20457;-72
2021/12/19 03:23:32;;;;;;;30.37;12.97;;;;;;;;;;5116383;28;20445;-72
2021/12/19 03:25:59;;;;;;;40.87;16.40;;;;;;;;;;5107805;28;20469;-72
2021/12/19 03:28:27;;;;;;;41.23;15.07;;;;;;;;;;5116431;28;20464;-72
2021/12/19 03:30:54;;;;;;;29.37;14.20;;;;;;;;;;5115993;28;20453;-72
2021/12/19 03:33:22;;;;;;;26.30;12.37;;;;;;;;;;5116287;28;20533;-72
2021/12/19 03:35:49;;;;;;;38.57;13.83;;;;;;;;;;5116109;28;20492;-72
2021/12/19 03:38:17;;;;;;;33.00;14.33;;;;;;;;;;5116251;28;20446;-72
2021/12/19 03:40:51;;;;;;;41.73;16.20;;;;;;;;;;5116173;28;20860;-72
2021/12/19 03:43:20;;;;;;;44.23;16.17;;;;;;;;;;5115983;28;20433;-72
2021/12/19 03:45:50;;;;;;;34.57;15.03;;;;;;;;;;5115677;28;20476;-72
2021/12/19 03:48:18;;;;;;;32.20;13.60;;;;;;;;;;5116042;28;20450;-72
2021/12/19 03:50:49;;;;;;;40.37;16.23;;;;;;;;;;5115965;28;20942;-72
2021/12/19 03:53:17;;;;;;;35.30;16.40;;;;;;;;;;5115965;28;20910;-72
2021/12/19 03:55:45;;;;;;;46.50;17.50;;;;;;;;;;5115424;28;20493;-72
2021/12/19 03:58:12;;;;;;;38.00;17.90;;;;;;;;;;5115629;28;20489;-72
2021/12/19 04:00:41;;;;;;;39.30;15.70;;;;;;;;;;5115558;28;20460;-72
2021/12/19 04:03:16;;;;;;;42.70;15.30;;;;;;;;;;5115820;28;20469;-72
2021/12/19 04:05:43;;;;;;;30.37;13.93;;;;;;;;;;5115695;28;20465;-72
2021/12/19 04:08:11;;;;;;;38.40;16.83;;;;;;;;;;5115449;28;20461;-72
2021/12/19 04:10:38;;;;;;;31.00;14.13;;;;;;;;;;5115360;28;20457;-72
2021/12/19 04:13:06;;;;;;;33.23;12.90;;;;;;;;;;5115484;28;20446;-72
2021/12/19 04:15:33;;;;;;;31.97;13.70;;;;;;;;;;5114996;28;20485;-72
2021/12/19 04:18:00;;;;;;;41.87;14.70;;;;;;;;;;5115203;28;20456;-72
2021/12/19 04:20:28;;;;;;;36.90;17.30;;;;;;;;;;5115478;28;20450;-72
2021/12/19 04:22:55;;;;;;;37.50;16.00;;;;;;;;;;5115068;28;20442;-72
2021/12/19 04:25:23;;;;;;;29.57;16.33;;;;;;;;;;5115309;28;20470;-72
2021/12/19 04:27:50;;;;;;;42.63;15.77;;;;;;;;;;5115290;28;20945;-72
2021/12/19 04:30:20;;;;;;;30.07;12.60;;;;;;;;;;5115316;28;20453;-72
2021/12/19 04:32:57;;;;;;;36.97;14.87;;;;;;;;;;5115290;28;20434;-72
2021/12/19 04:35:24;;;;;;;43.87;16.97;;;;;;;;;;5114998;28;20493;-72
2021/12/19 04:40:41;;;;;;;40.37;16.30;;;;;;;;;;5087352;28;20496;-72
2021/12/19 04:51:43;;;;;;;37.53;17.47;;;;;;;;;;5114728;28;20405;-72
2021/12/19 04:54:25;;;;;;;44.50;18.17;;;;;;;;;;5114410;28;20512;-72
2021/12/19 04:57:05;;;;;;;50.13;20.90;;;;;;;;;;5114497;28;20426;-72
2021/12/19 04:59:50;;;;;;;43.87;18.53;;;;;;;;;;5114446;28;20495;-72
2021/12/19 05:02:30;;;;;;;46.20;15.90;;;;;;;;;;5114648;28;20535;-72
2021/12/19 05:16:03;;;;;;;39.67;17.47;;;;;;;;;;5113918;28;20500;-72
2021/12/19 05:18:34;;;;;;;37.73;15.37;;;;;;;;;;5114296;28;20476;-72
2021/12/19 05:21:06;;;;;;;36.50;16.03;;;;;;;;;;5114203;28;20515;-72
2021/12/19 05:23:49;;;;;;;45.30;18.77;;;;;;;;;;5113725;28;20433;-72
2021/12/19 05:26:18;;;;;;;35.27;17.07;;;;;;;;;;5114326;28;20434;-72
2021/12/19 05:28:48;;;;;;;48.23;14.70;;;;;;;;;;5114291;28;20902;-72
2021/12/19 05:31:15;;;;;;;35.93;14.17;;;;;;;;;;5113895;28;20450;-72
2021/12/19 05:33:43;;;;;;;40.43;16.30;;;;;;;;;;5113692;28;20456;-72
2021/12/19 05:44:09;;;;;;;32.77;15.57;;;;;;;;;;5113793;28;20576;-72
2021/12/19 05:47:19;;;;;;;45.27;17.60;;;;;;;;;;5113818;28;20945;-72
2021/12/19 05:49:46;;;;;;;37.80;15.97;;;;;;;;;;5113927;28;20449;-72
2021/12/19 05:52:13;;;;;;;39.13;17.03;;;;;;;;;;5113621;28;20455;-72
2021/12/19 05:54:40;;;;;;;35.53;15.80;;;;;;;;;;5113634;28;20477;-72
2021/12/19 05:57:09;;;;;;;36.00;14.00;;;;;;;;;;5113512;28;20449;-72
2021/12/19 05:59:36;;;;;;;28.37;12.03;;;;;;;;;;5113622;28;20458;-72
2021/12/19 06:02:04;;;;;;;34.53;13.27;;;;;;;;;;5113836;28;20454;-72
2021/12/19 06:04:31;;;;;;;45.10;15.10;;;;;;;;;;5113564;28;20469;-72
2021/12/19 06:06:58;;;;;;;32.43;13.47;;;;;;;;;;5113817;28;20474;-72
2021/12/19 06:09:25;;;;;;;39.30;16.67;;;;;;;;;;5113814;28;20460;-72
2021/12/19 06:11:52;;;;;;;41.47;16.57;;;;;;;;;;5113406;28;20464;-72
2021/12/19 06:14:22;;;;;;;37.53;13.87;;;;;;;;;;5113621;28;20836;-72
2021/12/19 06:16:49;;;;;;;28.37;14.53;;;;;;;;;;5113334;28;20482;-72
2021/12/19 06:19:16;;;;;;;35.30;14.93;;;;;;;;;;5113664;28;20956;-72
2021/12/19 06:21:43;;;;;;;39.37;16.67;;;;;;;;;;5113359;28;20960;-72
2021/12/19 06:24:10;;;;;;;41.83;18.63;;;;;;;;;;5113286;28;20477;-72
2021/12/19 06:26:38;;;;;;;46.63;15.83;;;;;;;;;;5113583;28;20456;-72
2021/12/19 06:29:05;;;;;;;37.47;17.37;;;;;;;;;;5113318;28;20461;-72
2021/12/19 06:31:34;;;;;;;57.93;20.50;;;;;;;;;;5113484;28;20461;-72
2021/12/19 06:34:01;;;;;;;45.73;16.00;;;;;;;;;;5113444;28;20752;-72
2021/12/19 06:36:28;;;;;;;29.07;16.23;;;;;;;;;;5114835;28;20489;-72
2021/12/19 06:38:55;;;;;;;39.07;16.00;;;;;;;;;;5117503;28;20801;-72
2021/12/19 06:41:23;;;;;;;51.20;17.00;;;;;;;;;;5117125;28;20449;-72
2021/12/19 06:43:50;;;;;;;49.80;17.57;;;;;;;;;;5117050;28;20450;-72
2021/12/19 06:46:18;;;;;;;42.70;17.30;;;;;;;;;;5117007;28;20465;-72
2021/12/19 06:48:47;;;;;;;53.80;18.60;;;;;;;;;;5117171;28;20962;-72
2021/12/19 06:51:14;;;;;;;44.80;17.30;;;;;;;;;;5116851;28;20450;-71
2021/12/19 06:53:42;;;;;;;45.60;15.93;;;;;;;;;;5117078;28;20449;-72
2021/12/19 06:56:10;;;;;;;38.57;16.27;;;;;;;;;;5116866;28;20485;-72
2021/12/19 06:58:37;;;;;;;34.63;14.03;;;;;;;;;;5116445;28;20445;-72
2021/12/19 07:01:04;;;;;;;32.03;15.30;;;;;;;;;;5116587;28;20453;-72
2021/12/19 07:03:31;;;;;;;41.93;14.57;;;;;;;;;;5116440;28;20434;-72
2021/12/19 07:06:00;;;;;;;37.53;16.23;;;;;;;;;;5115252;28;20462;-72
2021/12/19 07:08:27;;;;;;;45.20;16.43;;;;;;;;;;5114494;28;20481;-72
2021/12/19 07:10:54;;;;;;;31.57;13.70;;;;;;;;;;5116678;28;20464;-72
2021/12/19 07:13:21;;;;;;;32.50;14.50;;;;;;;;;;5116536;28;20468;-72
2021/12/19 07:15:49;;;;;;;44.97;16.07;;;;;;;;;;5115775;28;20588;-72
2021/12/19 07:18:16;;;;;;;41.70;16.17;;;;;;;;;;5116394;28;20458;-72
2021/12/19 07:20:43;;;;;;;42.07;14.70;;;;;;;;;;5116267;28;20455;-72
2021/12/19 07:23:13;;;;;;;40.90;15.57;;;;;;;;;;5116628;28;21017;-72
2021/12/19 07:25:40;;;;;;;38.63;17.27;;;;;;;;;;5115992;28;20495;-72
2021/12/19 07:28:08;;;;;;;52.27;19.77;;;;;;;;;;5116488;28;20453;-72
2021/12/19 07:30:37;;;;;;;52.17;19.87;;;;;;;;;;5116372;28;20813;-72
2021/12/19 07:33:04;;;;;;;43.23;17.83;;;;;;;;;;5116122;28;20453;-72
2021/12/19 07:35:35;;;;;;;61.25;25.52;;;;;;;;;;5115486;28;20523;-72
2021/12/19 07:38:03;;;;;;;57.50;21.73;;;;;;;;;;5116462;28;20199;-72
2021/12/19 07:40:36;;;;;;;58.77;20.80;;;;;;;;;;5116356;28;20826;-72
2021/12/19 07:43:03;;;;;;;55.27;19.03;;;;;;;;;;5116295;28;20442;-72
2021/12/19 07:45:31;;;;;;;55.47;17.23;;;;;;;;;;5116147;28;20523;-72
2021/12/19 07:47:58;;;;;;;46.17;17.43;;;;;;;;;;5115281;28;20492;-72
2021/12/19 07:50:26;;;;;;;48.83;20.10;;;;;;;;;;5116108;28;20442;-72
2021/12/19 07:52:53;;;;;;;70.53;19.07;;;;;;;;;;5115655;28;20456;-72
2021/12/19 07:55:20;;;;;;;57.23;18.53;;;;;;;;;;5115510;28;20846;-72
2021/12/19 07:57:49;;;;;;;54.30;19.03;;;;;;;;;;5115899;28;20485;-72
2021/12/19 08:00:19;;;;;;;68.87;20.50;;;;;;;;;;5115842;28;20445;-72
2021/12/19 08:02:46;;;;;;;44.13;16.77;;;;;;;;;;5115502;28;20457;-72
2021/12/19 08:05:14;;;;;;;52.30;21.43;;;;;;;;;;5115651;28;20820;-72
2021/12/19 08:07:43;;;;;;;43.10;18.07;;;;;;;;;;5115718;28;20536;-72
2021/12/19 08:11:39;;;;;;;55.27;17.20;;;;;;;;;;5115622;28;20449;-72
2021/12/19 08:13:01;;;;;;;50.70;17.13;;;;;;;;;;5115193;28;20875;-72
2021/12/19 08:15:29;;;;;;;51.00;19.27;;;;;;;;;;5114940;28;21082;-72
2021/12/19 08:17:56;;;;;;;41.53;18.57;;;;;;;;;;5115122;28;20453;-72
2021/12/19 08:20:24;;;;;;;49.00;19.10;;;;;;;;;;5115294;28;20895;-72
2021/12/19 08:22:52;;;;;;;50.17;18.70;;;;;;;;;;5114994;28;20489;-71
2021/12/19 08:25:19;;;;;;;52.27;21.43;;;;;;;;;;5115023;28;20515;-72
2021/12/19 08:27:46;;;;;;;43.50;16.93;;;;;;;;;;5115241;28;20782;-72
2021/12/19 08:30:15;;;;;;;44.20;16.40;;;;;;;;;;5114845;28;20457;-72
2021/12/19 08:32:43;;;;;;;37.90;14.07;;;;;;;;;;5115189;28;20457;-72
2021/12/19 08:35:11;;;;;;;43.37;16.30;;;;;;;;;;5114772;28;20560;-72
2021/12/19 08:37:39;;;;;;;50.10;16.77;;;;;;;;;;5114873;28;20501;-72
2021/12/19 08:40:08;;;;;;;34.83;15.20;;;;;;;;;;5114951;28;20809;-72
2021/12/19 08:42:35;;;;;;;44.93;17.80;;;;;;;;;;5114897;28;20453;-72
2021/12/19 08:45:02;;;;;;;49.63;19.77;;;;;;;;;;5114793;28;20474;-72
2021/12/19 08:47:31;;;;;;;67.33;17.70;;;;;;;;;;5114715;28;20450;-72
2021/12/19 08:49:58;;;;;;;47.20;17.23;;;;;;;;;;5114316;28;20470;-72
2021/12/19 08:52:25;;;;;;;48.93;18.53;;;;;;;;;;5114775;28;21006;-71
2021/12/19 08:54:53;;;;;;;42.80;15.33;;;;;;;;;;5114260;28;20919;-72
2021/12/19 08:57:21;;;;;;;30.90;12.57;;;;;;;;;;5114423;28;20490;-72
2021/12/19 08:59:48;;;;;;;38.10;17.70;;;;;;;;;;5113775;28;20441;-72
2021/12/19 09:02:15;;;;;;;43.23;15.37;;;;;;;;;;5114149;28;20466;-71
2021/12/19 09:04:43;;;;;;;40.93;12.17;;;;;;;;;;5114129;28;20475;-71
2021/12/19 09:07:12;;;;;;;36.57;16.47;;;;;;;;;;5114323;28;20448;-71
2021/12/19 09:09:40;;;;;;;38.70;15.13;;;;;;;;;;5114499;28;20946;-72
2021/12/19 09:12:07;;;;;;;41.13;16.33;;;;;;;;;;5114130;28;20460;-72
2021/12/19 09:14:34;;;;;;;31.67;13.50;;;;;;;;;;5114214;28;20997;-72
2021/12/19 09:17:02;;;;;;;42.63;16.07;;;;;;;;;;5114321;28;20465;-72
2021/12/19 09:19:29;;;;;;;37.27;15.10;;;;;;;;;;5114357;28;20893;-72
2021/12/19 09:21:58;;;;;;;34.37;13.50;;;;;;;;;;5114340;28;20456;-72
2021/12/19 09:24:25;;;;;;;33.40;13.03;;;;;;;;;;5114057;28;20468;-72
2021/12/19 09:26:52;;;;;;;32.57;12.50;;;;;;;;;;5113345;28;20446;-72
2021/12/19 09:29:19;;;;;;;28.10;11.30;;;;;;;;;;5113813;28;20454;-72
2021/12/19 09:31:46;;;;;;;28.90;8.93;;;;;;;;;;5113715;28;20456;-72
2021/12/19 09:34:14;;;;;;;38.43;12.37;;;;;;;;;;5113739;28;20476;-72
2021/12/19 09:36:41;;;;;;;34.10;12.97;;;;;;;;;;5113917;28;20985;-72
2021/12/19 09:39:09;;;;;;;30.07;10.83;;;;;;;;;;5113709;28;20450;-72
2021/12/19 09:41:43;;;;;;;45.13;13.60;;;;;;;;;;5113442;28;20461;-72
2021/12/19 09:44:11;;;;;;;28.77;10.67;;;;;;;;;;5113313;28;20489;-72
2021/12/19 09:46:41;;;;;;;34.13;12.90;;;;;;;;;;5113813;28;20446;-72
2021/12/19 09:49:09;;;;;;;41.07;13.47;;;;;;;;;;5113470;28;20445;-72
2021/12/19 09:51:36;;;;;;;21.63;10.10;;;;;;;;;;5113435;28;20461;-72
2021/12/19 09:54:04;;;;;;;31.27;11.70;;;;;;;;;;5113611;28;20476;-72
2021/12/19 09:56:33;;;;;;;30.13;11.43;;;;;;;;;;5113423;28;20469;-72
2021/12/19 09:59:01;;;;;;;30.90;10.13;;;;;;;;;;5113570;28;20449;-72
2021/12/19 10:01:29;;;;;;;28.07;10.63;;;;;;;;;;5113700;28;20473;-72
2021/12/19 10:03:56;;;;;;;37.67;11.47;;;;;;;;;;5113594;28;20972;-72
2021/12/19 10:06:24;;;;;;;28.80;10.20;;;;;;;;;;5112968;28;20458;-72
2021/12/19 10:09:07;;;;;;;39.80;14.73;;;;;;;;;;5109911;28;20470;-72
2021/12/19 10:11:47;;;;;;;34.00;12.87;;;;;;;;;;5115473;28;20433;-72
2021/12/19 10:14:27;;;;;;;30.70;11.50;;;;;;;;;;5116067;28;20477;-72
2021/12/19 10:16:55;;;;;;;31.23;11.80;;;;;;;;;;5115983;28;20489;-72
2021/12/19 10:19:22;;;;;;;34.57;12.50;;;;;;;;;;5115966;28;20918;-73
2021/12/19 10:21:49;;;;;;;32.37;10.90;;;;;;;;;;5116042;28;20452;-72
2021/12/19 10:24:32;;;;;;;35.03;12.80;;;;;;;;;;5115761;28;20476;-73
2021/12/19 10:27:02;;;;;;;44.07;15.23;;;;;;;;;;5113922;28;20453;-72
2021/12/19 10:29:45;;;;;;;41.10;15.20;;;;;;;;;;5116098;28;20472;-72
2021/12/19 10:32:12;;;;;;;41.53;16.10;;;;;;;;;;5115860;28;20445;-72
2021/12/19 10:34:40;;;;;;;32.20;10.60;;;;;;;;;;5115830;28;20738;-72
2021/12/19 10:37:07;;;;;;;40.23;15.17;;;;;;;;;;5115910;28;20484;-72
2021/12/19 10:39:39;;;;;;;41.27;14.17;;;;;;;;;;5115845;28;20866;-73
2021/12/19 10:42:10;;;;;;;37.87;13.10;;;;;;;;;;5115469;28;20453;-73
2021/12/19 10:47:24;;;;;;;42.23;13.63;;;;;;;;;;5095433;28;20418;-72
2021/12/19 10:49:51;;;;;;;38.80;14.43;;;;;;;;;;5094889;28;20469;-73
2021/12/19 10:52:31;;;;;;;41.30;15.67;;;;;;;;;;5094907;28;20434;-73
2021/12/19 10:55:00;;;;;;;38.03;14.23;;;;;;;;;;5094822;28;20524;-73
2021/12/19 10:57:33;;;;;;;46.67;16.00;;;;;;;;;;5094697;28;20990;-73
2021/12/19 11:00:00;;;;;;;30.10;11.50;;;;;;;;;;5095356;28;20546;-73
2021/12/19 11:02:41;;;;;;;49.10;16.90;;;;;;;;;;5095343;28;20474;-73
2021/12/19 11:05:29;;;;;;;38.20;15.30;;;;;;;;;;5094305;28;20466;-72
2021/12/19 11:08:02;;;;;;;34.70;13.00;;;;;;;;;;5093874;28;20451;-73
2021/12/19 11:10:31;;;;;;;33.33;13.73;;;;;;;;;;5094842;28;20461;-73
2021/12/19 11:13:09;;;;;;;37.67;13.67;;;;;;;;;;5094809;28;20450;-73
2021/12/19 11:15:36;;;;;;;25.20;11.70;;;;;;;;;;5093834;28;20485;-72
2021/12/19 11:18:03;;;;;;;30.13;13.63;;;;;;;;;;5094988;28;20493;-72
2021/12/19 11:20:31;;;;;;;32.53;14.00;;;;;;;;;;5094357;28;20525;-73
2021/12/19 11:22:58;;;;;;;28.30;13.97;;;;;;;;;;5093761;28;20446;-73
2021/12/19 11:25:25;;;;;;;26.80;11.83;;;;;;;;;;5094382;28;20971;-73
2021/12/19 11:27:52;;;;;;;26.73;10.87;;;;;;;;;;5094712;28;20442;-73
2021/12/19 11:30:21;;;;;;;24.07;11.27;;;;;;;;;;5094348;28;20456;-73
2021/12/19 11:32:53;;;;;;;23.70;10.97;;;;;;;;;;5094906;28;20904;-73
2021/12/19 11:35:22;;;;;;;23.03;9.07;;;;;;;;;;5095801;28;20478;-72
2021/12/19 11:37:51;;;;;;;21.80;10.70;;;;;;;;;;5095410;28;20486;-73
2021/12/19 11:40:19;;;;;;;24.17;10.40;;;;;;;;;;5095344;28;20451;-73
2021/12/19 11:42:46;;;;;;;21.63;10.67;;;;;;;;;;5095587;28;20812;-73
2021/12/19 11:45:32;;;;;;;19.07;8.47;;;;;;;;;;5095106;28;20474;-73
2021/12/19 11:48:06;;;;;;;19.97;9.37;;;;;;;;;;5095429;28;20472;-73
2021/12/19 11:50:34;;;;;;;20.03;10.73;;;;;;;;;;5095559;28;20451;-73
2021/12/19 11:53:20;;;;;;;27.60;10.23;;;;;;;;;;5095478;28;20458;-74
2021/12/19 11:55:47;;;;;;;24.13;10.33;;;;;;;;;;5095283;28;20466;-73
2021/12/19 11:58:19;;;;;;;24.53;11.07;;;;;;;;;;5095265;28;20487;-73
2021/12/19 12:00:53;;;;;;;22.03;11.40;;;;;;;;;;5095432;28;20497;-73
2021/12/19 12:03:42;;;;;;;26.83;11.57;;;;;;;;;;5095198;28;20946;-73
2021/12/19 12:06:28;;;;;;;27.47;12.20;;;;;;;;;;5095265;28;20495;-72
2021/12/19 12:09:06;;;;;;;22.43;10.80;;;;;;;;;;5094993;28;20454;-72
2021/12/19 12:11:33;;;;;;;22.97;11.33;;;;;;;;;;5094497;28;20473;-72
2021/12/19 12:14:15;;;;;;;30.63;13.10;;;;;;;;;;5094772;28;20545;-72
2021/12/19 12:16:52;;;;;;;25.20;14.23;;;;;;;;;;5094292;28;20458;-72
2021/12/19 12:19:37;;;;;;;29.97;13.13;;;;;;;;;;5094625;28;20458;-72
2021/12/19 12:22:21;;;;;;;29.57;13.90;;;;;;;;;;5094724;28;20508;-72
2021/12/19 12:25:03;;;;;;;31.33;13.00;;;;;;;;;;5093984;28;20471;-72
2021/12/19 12:27:35;;;;;;;37.27;17.43;;;;;;;;;;5094798;28;20473;-72
2021/12/19 12:30:02;;;;;;;27.63;12.63;;;;;;;;;;5094664;28;20451;-72
2021/12/19 12:32:31;;;;;;;29.27;14.53;;;;;;;;;;5094209;28;20461;-72
2021/12/19 12:34:58;;;;;;;32.03;15.73;;;;;;;;;;5094237;28;20471;-72
2021/12/19 12:37:27;;;;;;;30.67;13.07;;;;;;;;;;5094186;28;20482;-72
2021/12/19 12:40:15;;;;;;;28.63;13.70;;;;;;;;;;5094388;28;20513;-72
2021/12/19 12:42:56;;;;;;;30.00;12.90;;;;;;;;;;5094464;28;20534;-72
2021/12/19 12:45:24;;;;;;;37.23;15.00;;;;;;;;;;5093994;28;20485;-72
2021/12/19 12:47:52;;;;;;;36.63;14.10;;;;;;;;;;5094117;28;20454;-72
2021/12/19 12:50:19;;;;;;;31.27;13.67;;;;;;;;;;5094179;28;20450;-72
2021/12/19 12:52:46;;;;;;;28.17;11.30;;;;;;;;;;5093704;28;20954;-72
2021/12/19 12:55:14;;;;;;;29.47;13.70;;;;;;;;;;5093984;28;20561;-72
2021/12/19 12:57:44;;;;;;;32.40;14.20;;;;;;;;;;5093837;28;20475;-72
2021/12/19 13:00:19;;;;;;;34.17;14.50;;;;;;;;;;5093939;28;20457;-72
2021/12/19 13:02:55;;;;;;;28.07;12.80;;;;;;;;;;5093821;28;20438;-72
2021/12/19 13:05:23;;;;;;;27.87;13.30;;;;;;;;;;5093632;28;20970;-72
2021/12/19 13:07:50;;;;;;;33.93;14.13;;;;;;;;;;5093865;28;20451;-72
2021/12/19 13:10:17;;;;;;;29.67;12.70;;;;;;;;;;5093723;28;20450;-72
2021/12/19 13:12:46;;;;;;;21.33;11.43;;;;;;;;;;5093680;28;20462;-72
2021/12/19 13:15:15;;;;;;;29.53;12.97;;;;;;;;;;5092797;28;20544;-72
2021/12/19 13:17:42;;;;;;;24.60;11.73;;;;;;;;;;5093366;28;20585;-72
2021/12/19 13:20:10;;;;;;;27.27;13.20;;;;;;;;;;5093401;28;20447;-73
2021/12/19 13:22:42;;;;;;;25.60;14.17;;;;;;;;;;5093563;28;20550;-73
2021/12/19 13:25:11;;;;;;;25.03;12.63;;;;;;;;;;5093514;28;20565;-72
2021/12/19 13:27:40;;;;;;;24.33;11.70;;;;;;;;;;5093539;28;20541;-72
2021/12/19 13:30:09;;;;;;;26.33;12.07;;;;;;;;;;5093694;28;20446;-72
2021/12/19 13:32:37;;;;;;;18.47;10.63;;;;;;;;;;5093337;28;20458;-72
2021/12/19 13:35:06;;;;;;;24.13;11.70;;;;;;;;;;5093299;28;20477;-72
2021/12/19 13:37:34;;;;;;;30.00;12.07;;;;;;;;;;5093217;28;20490;-72
2021/12/19 13:40:11;;;;;;;24.33;10.90;;;;;;;;;;5093316;28;20454;-72
2021/12/19 13:42:41;;;;;;;27.97;12.90;;;;;;;;;;5093341;28;20458;-72
2021/12/19 13:45:24;;;;;;;25.40;13.80;;;;;;;;;;5092646;28;20493;-72
2021/12/19 13:47:51;;;;;;;23.30;12.37;;;;;;;;;;5093306;28;20454;-72
2021/12/19 13:50:18;;;;;;;20.83;11.37;;;;;;;;;;5093374;28;20833;-72
2021/12/19 13:52:46;;;;;;;25.63;12.03;;;;;;;;;;5093248;28;20446;-72
2021/12/19 13:55:16;;;;;;;26.67;12.97;;;;;;;;;;5093082;28;20477;-72
2021/12/19 13:57:44;;;;;;;22.73;11.47;;;;;;;;;;5093319;28;20485;-72
2021/12/19 14:00:13;;;;;;;28.27;13.30;;;;;;;;;;5093036;28;20446;-72
2021/12/19 14:02:41;;;;;;;23.27;11.40;;;;;;;;;;5093080;28;20461;-72
2021/12/19 14:05:23;;;;;;;22.00;12.07;;;;;;;;;;5092796;28;20474;-72
2021/12/19 14:07:50;;;;;;;22.30;10.90;;;;;;;;;;5092513;28;20446;-72
2021/12/19 14:10:23;;;;;;;20.97;11.03;;;;;;;;;;5093129;28;20442;-72
2021/12/19 14:13:05;;;;;;;22.87;11.70;;;;;;;;;;5092937;28;20454;-72
2021/12/19 14:15:33;;;;;;;23.47;11.40;;;;;;;;;;5092198;28;20573;-72
2021/12/19 14:18:00;;;;;;;27.30;12.20;;;;;;;;;;5093181;28;20486;-72
2021/12/19 14:20:34;;;;;;;28.23;11.87;;;;;;;;;;5092962;28;20446;-72
2021/12/19 14:23:15;;;;;;;28.93;13.07;;;;;;;;;;5093171;28;20450;-72
2021/12/19 14:25:44;;;;;;;25.27;12.37;;;;;;;;;;5092671;28;20485;-72
2021/12/19 14:28:18;;;;;;;21.27;11.40;;;;;;;;;;5092910;28;20486;-71
2021/12/19 14:30:56;;;;;;;33.93;12.57;;;;;;;;;;5092933;28;20458;-71
2021/12/19 14:33:29;;;;;;;21.27;9.30;;;;;;;;;;5092856;28;20457;-72
2021/12/19 14:35:56;;;;;;;22.60;10.77;;;;;;;;;;5092912;28;20486;-72
2021/12/19 14:38:24;;;;;;;19.37;9.47;;;;;;;;;;5092887;28;20844;-72
2021/12/19 14:40:58;;;;;;;24.40;11.27;;;;;;;;;;5092967;28;20450;-71
2021/12/19 14:43:29;;;;;;;23.50;12.60;;;;;;;;;;5092781;28;20450;-71
2021/12/19 14:45:57;;;;;;;30.83;11.90;;;;;;;;;;5092817;28;20470;-71
2021/12/19 14:48:30;;;;;;;32.43;13.77;;;;;;;;;;5092663;28;20825;-72
2021/12/19 14:50:58;;;;;;;25.47;11.87;;;;;;;;;;5092818;28;20554;-71
2021/12/19 14:53:27;;;;;;;34.93;19.17;;;;;;;;;;5092635;28;20451;-71
2021/12/19 14:55:57;;;;;;;29.87;16.13;;;;;;;;;;5092616;28;20848;-71
2021/12/19 14:58:25;;;;;;;26.07;12.63;;;;;;;;;;5095482;28;20844;-71
2021/12/19 15:00:53;;;;;;;27.70;11.90;;;;;;;;;;5096643;28;20446;-71
2021/12/19 15:03:21;;;;;;;22.00;10.70;;;;;;;;;;5096552;28;20478;-71
2021/12/19 15:05:48;;;;;;;25.33;13.30;;;;;;;;;;5096093;28;20474;-71
2021/12/19 15:08:17;;;;;;;27.33;11.03;;;;;;;;;;5096391;28;20449;-71
2021/12/19 15:10:45;;;;;;;18.47;11.10;;;;;;;;;;5096325;28;20464;-73
2021/12/19 15:13:13;;;;;;;18.63;11.00;;;;;;;;;;5096213;28;20461;-71
2021/12/19 15:15:40;;;;;;;29.83;12.47;;;;;;;;;;5095477;28;20482;-71
2021/12/19 15:18:07;;;;;;;29.77;11.90;;;;;;;;;;5095926;28;20478;-71